createdAt,value
2017-11-20T00:00:31.225Z,96937.58
2017-11-20T00:02:57.394Z,96956.41
2017-11-20T00:05:23.538Z,96966.84
2017-11-20T00:07:49.662Z,96979.65
2017-11-20T00:10:15.779Z,96977.95
2017-11-20T00:12:41.885Z,96986.33
2017-11-20T00:15:07.949Z,96989.72
2017-11-20T00:17:34.108Z,96977.30
2017-11-20T00:20:00.216Z,96978.71
2017-11-20T00:22:26.306Z,96980.55
2017-11-20T00:24:52.457Z,96982.13
2017-11-20T00:27:18.579Z,96981.20
2017-11-20T00:29:44.797Z,96974.53
2017-11-20T00:32:10.981Z,96980.29
2017-11-20T00:34:37.091Z,96979.91
2017-11-20T00:37:03.156Z,96979.52
2017-11-20T00:39:29.289Z,96973.63
2017-11-20T00:41:55.426Z,96994.27
2017-11-20T00:44:21.511Z,96985.13
2017-11-20T00:46:47.690Z,96979.77
2017-11-20T00:49:13.813Z,96971.41
2017-11-20T00:51:39.917Z,96971.02
2017-11-20T00:54:06.079Z,96964.09
2017-11-20T00:56:32.197Z,96970.10
2017-11-20T00:58:58.253Z,96977.81
2017-11-20T01:01:24.429Z,96972.58
2017-11-20T01:03:50.629Z,96985.78
2017-11-20T01:06:16.761Z,96989.19
2017-11-20T01:08:42.910Z,96990.48
2017-11-20T01:11:09.109Z,96986.43
2017-11-20T01:13:35.304Z,96986.95
2017-11-20T01:16:01.450Z,96981.45
2017-11-20T01:18:27.499Z,96974.16
2017-11-20T01:20:53.627Z,96983.67
2017-11-20T01:23:19.718Z,96988.27
2017-11-20T01:25:45.767Z,96984.06
2017-11-20T01:28:11.858Z,96978.45
2017-11-20T01:30:38.010Z,96992.04
2017-11-20T01:33:04.117Z,96995.44
2017-11-20T01:35:30.268Z,96989.03
2017-11-20T01:37:56.422Z,96997.42
2017-11-20T01:40:22.542Z,96990.49
2017-11-20T01:42:48.658Z,96994.00
2017-11-20T01:45:14.865Z,97000.28
2017-11-20T01:47:41.073Z,96996.62
2017-11-20T01:50:07.252Z,96994.29
2017-11-20T01:52:33.412Z,96977.93
2017-11-20T01:54:59.516Z,96996.23
2017-11-20T01:57:25.649Z,96991.01
2017-11-20T01:59:51.774Z,96984.73
2017-11-20T02:02:17.832Z,96987.36
2017-11-20T02:04:43.921Z,96984.34
2017-11-20T02:07:10.029Z,96983.83
2017-11-20T02:09:36.178Z,96995.73
2017-11-20T02:12:02.293Z,97002.02
2017-11-20T02:14:28.386Z,97000.18
2017-11-20T02:16:54.507Z,97004.48
2017-11-20T02:19:20.673Z,97003.19
2017-11-20T02:21:46.836Z,97006.31
2017-11-20T02:24:12.887Z,97008.15
2017-11-20T02:26:38.945Z,97001.22
2017-11-20T02:29:05.078Z,97008.67
2017-11-20T02:31:31.212Z,97009.57
2017-11-20T02:33:57.277Z,97005.27
2017-11-20T02:36:23.409Z,97005.66
2017-11-20T02:38:49.541Z,97012.45
2017-11-20T02:41:15.733Z,97015.45
2017-11-20T02:43:41.806Z,97012.33
2017-11-20T02:46:07.873Z,97012.19
2017-11-20T02:48:34.032Z,97020.43
2017-11-20T02:51:00.126Z,97019.91
2017-11-20T02:53:26.275Z,97020.16
2017-11-20T02:55:52.396Z,97023.70
2017-11-20T02:58:18.461Z,97017.67
2017-11-20T03:00:44.501Z,97027.61
2017-11-20T03:03:10.593Z,97027.22
2017-11-20T03:05:36.737Z,97036.24
2017-11-20T03:08:02.867Z,97038.08
2017-11-20T03:10:29.012Z,97046.83
2017-11-20T03:12:55.151Z,97046.94
2017-11-20T03:15:21.293Z,97049.56
2017-11-20T03:17:47.376Z,97053.48
2017-11-20T03:20:13.481Z,97053.09
2017-11-20T03:22:39.616Z,97048.52
2017-11-20T03:25:05.757Z,97050.47
2017-11-20T03:27:31.889Z,97053.47
2017-11-20T03:29:57.975Z,97044.58
2017-11-20T03:32:24.093Z,97043.94
2017-11-20T03:34:50.450Z,97049.16
2017-11-20T03:37:16.570Z,97049.94
2017-11-20T03:39:42.735Z,97051.77
2017-11-20T03:42:08.853Z,97045.76
2017-11-20T03:44:34.969Z,97047.20
2017-11-20T03:47:01.127Z,97055.70
2017-11-20T03:49:27.236Z,97053.74
2017-11-20T03:51:53.441Z,97054.41
2017-11-20T03:54:19.550Z,97052.30
2017-11-20T03:56:46.093Z,97064.98
2017-11-20T03:59:12.264Z,97067.20
2017-11-20T04:01:38.364Z,97064.34
2017-11-20T04:04:04.484Z,97064.31
2017-11-20T04:06:30.597Z,97065.65
2017-11-20T04:08:56.685Z,97068.78
2017-11-20T04:11:22.715Z,97065.75
2017-11-20T04:13:48.816Z,97068.25
2017-11-20T04:16:14.896Z,97070.06
2017-11-20T04:18:41.121Z,97061.59
2017-11-20T04:21:07.254Z,97068.65
2017-11-20T04:23:33.366Z,97060.13
2017-11-20T04:25:59.475Z,97062.36
2017-11-20T04:28:25.541Z,97067.59
2017-11-20T04:30:51.659Z,97066.69
2017-11-20T04:33:17.777Z,97065.10
2017-11-20T04:35:43.973Z,97072.81
2017-11-20T04:38:10.088Z,97071.11
2017-11-20T04:40:36.260Z,97067.87
2017-11-20T04:43:02.429Z,97073.85
2017-11-20T04:45:28.513Z,97083.27
2017-11-20T04:47:54.577Z,97082.37
2017-11-20T04:50:20.690Z,97082.75
2017-11-20T04:52:46.803Z,97092.56
2017-11-20T04:55:13.027Z,97085.89
2017-11-20T04:57:39.211Z,97080.02
2017-11-20T05:00:05.353Z,97093.08
2017-11-20T05:02:31.462Z,97089.67
2017-11-20T05:04:57.606Z,97080.67
2017-11-20T05:07:23.746Z,97087.59
2017-11-20T05:09:49.893Z,97078.72
2017-11-20T05:12:15.994Z,97091.39
2017-11-20T05:14:42.179Z,97085.25
2017-11-20T05:17:08.300Z,97090.08
2017-11-20T05:19:34.409Z,97088.77
2017-11-20T05:22:00.594Z,97094.40
2017-11-20T05:24:26.769Z,97099.10
2017-11-20T05:26:52.869Z,97101.33
2017-11-20T05:29:18.979Z,97105.37
2017-11-20T05:31:45.147Z,97100.02
2017-11-20T05:34:11.216Z,97100.55
2017-11-20T05:36:37.340Z,97112.17
2017-11-20T05:39:03.454Z,97111.91
2017-11-20T05:41:29.526Z,97102.75
2017-11-20T05:43:55.663Z,97101.84
2017-11-20T05:46:21.791Z,97105.11
2017-11-20T05:48:47.908Z,97105.36
2017-11-20T05:51:14.012Z,97107.98
2017-11-20T05:53:40.122Z,97101.97
2017-11-20T05:56:06.277Z,97103.02
2017-11-20T05:58:32.358Z,97106.02
2017-11-20T06:00:58.522Z,97120.41
2017-11-20T06:03:24.635Z,97116.09
2017-11-20T06:05:50.694Z,97106.81
2017-11-20T06:08:16.798Z,97111.13
2017-11-20T06:10:42.949Z,97114.78
2017-11-20T06:13:09.078Z,97123.93
2017-11-20T06:15:35.198Z,97117.14
2017-11-20T06:18:01.310Z,97123.52
2017-11-20T06:20:27.468Z,97115.42
2017-11-20T06:22:53.638Z,97117.91
2017-11-20T06:25:19.733Z,97113.33
2017-11-20T06:27:45.777Z,97113.07
2017-11-20T06:30:11.899Z,97115.30
2017-11-20T06:32:38.027Z,97116.48
2017-11-20T06:35:04.197Z,97116.47
2017-11-20T06:37:30.302Z,97121.44
2017-11-20T06:39:56.426Z,97116.34
2017-11-20T06:42:22.656Z,97124.57
2017-11-20T06:44:48.835Z,97121.56
2017-11-20T06:47:15.011Z,97121.83
2017-11-20T06:49:41.150Z,97126.80
2017-11-20T06:52:07.246Z,97130.71
2017-11-20T06:54:33.379Z,97134.27
2017-11-20T06:56:59.481Z,97126.94
2017-11-20T06:59:25.553Z,97126.66
2017-11-20T07:01:51.705Z,97135.97
2017-11-20T07:04:17.830Z,97134.66
2017-11-20T07:06:43.921Z,97136.59
2017-11-20T07:09:10.090Z,97139.75
2017-11-20T07:11:36.172Z,97131.75
2017-11-20T07:14:02.283Z,97147.20
2017-11-20T07:16:28.461Z,97153.09
2017-11-20T07:18:54.601Z,97143.65
2017-11-20T07:21:20.801Z,97143.94
2017-11-20T07:23:46.993Z,97139.86
2017-11-20T07:29:28.452Z,97152.41
2017-11-20T07:31:54.616Z,97156.98
2017-11-20T07:34:32.710Z,97159.98
2017-11-20T07:37:10.978Z,97163.39
2017-11-20T07:39:37.088Z,97161.16
2017-11-20T07:42:03.193Z,97175.94
2017-11-20T07:44:29.334Z,97175.67
2017-11-20T07:46:55.474Z,97161.56
2017-11-20T07:49:21.585Z,97164.44
2017-11-20T07:51:47.752Z,97167.31
2017-11-20T07:54:13.867Z,97165.48
2017-11-20T07:56:40.001Z,97162.73
2017-11-20T07:59:06.131Z,97164.70
2017-11-20T08:01:32.291Z,97160.62
2017-11-20T08:03:58.449Z,97147.31
2017-11-20T08:06:24.521Z,97160.91
2017-11-20T08:08:50.605Z,97162.21
2017-11-20T08:11:16.849Z,97167.44
2017-11-20T08:13:42.965Z,97165.34
2017-11-20T08:16:09.065Z,97163.52
2017-11-20T08:18:35.257Z,97163.39
2017-11-20T08:21:01.333Z,97168.09
2017-11-20T08:23:27.397Z,97167.30
2017-11-20T08:25:53.534Z,97177.77
2017-11-20T08:28:19.726Z,97177.11
2017-11-20T08:30:45.869Z,97174.91
2017-11-20T08:33:12.062Z,97168.88
2017-11-20T08:35:38.182Z,97166.78
2017-11-20T08:38:04.234Z,97183.13
2017-11-20T08:40:30.347Z,97171.36
2017-11-20T08:42:56.428Z,97167.18
2017-11-20T08:45:22.529Z,97171.36
2017-11-20T08:47:48.715Z,97169.40
2017-11-20T08:50:14.813Z,97171.20
2017-11-20T08:52:40.890Z,97176.17
2017-11-20T08:55:07.029Z,97181.55
2017-11-20T08:57:33.136Z,97181.16
2017-11-20T08:59:59.279Z,97179.46
2017-11-20T09:02:25.333Z,97183.38
2017-11-20T09:04:51.445Z,97181.42
2017-11-20T09:07:17.606Z,97184.01
2017-11-20T09:09:43.728Z,97188.19
2017-11-20T09:12:10.518Z,97191.06
2017-11-20T09:14:36.702Z,97191.06
2017-11-20T09:17:02.779Z,97194.59
2017-11-20T09:19:28.929Z,97188.45
2017-11-20T09:21:55.061Z,97203.08
2017-11-20T09:24:21.184Z,97202.17
2017-11-20T09:26:47.328Z,97197.98
2017-11-20T09:29:13.409Z,97200.23
2017-11-20T09:31:39.534Z,97202.82
2017-11-20T09:34:05.749Z,97207.27
2017-11-20T09:36:31.899Z,97193.55
2017-11-20T09:38:58.078Z,97198.38
2017-11-20T09:41:24.219Z,97196.81
2017-11-20T09:43:50.285Z,97189.66
2017-11-20T09:46:16.377Z,97191.74
2017-11-20T09:48:42.494Z,97183.52
2017-11-20T09:51:08.568Z,97186.91
2017-11-20T09:53:34.724Z,97174.75
2017-11-20T09:56:00.953Z,97184.56
2017-11-20T09:58:27.085Z,97180.51
2017-11-20T10:00:53.193Z,97188.09
2017-11-20T10:03:19.333Z,97195.56
2017-11-20T10:05:45.402Z,97188.37
2017-11-20T10:08:11.581Z,97174.63
2017-11-20T10:10:37.739Z,97183.13
2017-11-20T10:13:03.845Z,97174.88
2017-11-20T10:15:29.954Z,97178.55
2017-11-20T10:17:56.047Z,97179.85
2017-11-20T10:20:22.192Z,97171.38
2017-11-20T10:22:48.304Z,97164.84
2017-11-20T10:25:14.464Z,97162.99
2017-11-20T10:27:40.610Z,97160.91
2017-11-20T10:30:06.681Z,97164.30
2017-11-20T10:32:32.817Z,97157.50
2017-11-20T10:34:58.876Z,97153.48
2017-11-20T10:37:24.939Z,97158.97
2017-11-20T10:39:51.105Z,97150.20
2017-11-20T10:42:17.174Z,97162.11
2017-11-20T10:44:43.253Z,97155.83
2017-11-20T10:47:09.434Z,97141.97
2017-11-20T10:49:35.570Z,97139.22
2017-11-20T10:52:01.695Z,97141.59
2017-11-20T10:54:27.816Z,97140.69
2017-11-20T10:56:53.902Z,97125.89
2017-11-20T10:59:19.985Z,97138.45
2017-11-20T11:01:46.056Z,97134.14
2017-11-20T11:04:12.173Z,97135.56
2017-11-20T11:06:38.275Z,97129.44
2017-11-20T11:09:04.344Z,97125.36
2017-11-20T11:11:30.486Z,97125.48
2017-11-20T11:13:56.622Z,97116.33
2017-11-20T11:16:22.731Z,97110.46
2017-11-20T11:18:48.805Z,97114.63
2017-11-20T11:21:14.872Z,97116.96
2017-11-20T11:23:40.947Z,97102.73
2017-11-20T11:26:07.074Z,97104.94
2017-11-20T11:28:33.185Z,97110.17
2017-11-20T11:30:59.255Z,97106.09
2017-11-20T11:33:25.536Z,97102.70
2017-11-20T11:35:51.623Z,97102.41
2017-11-20T11:38:17.790Z,97100.08
2017-11-20T11:40:43.852Z,97099.56
2017-11-20T11:43:09.952Z,97098.64
2017-11-20T11:45:36.109Z,97090.00
2017-11-20T11:48:02.242Z,97097.33
2017-11-20T11:50:28.326Z,97102.53
2017-11-20T11:52:54.428Z,97096.66
2017-11-20T11:55:20.502Z,97099.17
2017-11-20T11:57:46.602Z,97100.72
2017-11-20T12:00:12.804Z,97094.56
2017-11-20T12:02:38.927Z,97096.52
2017-11-20T12:05:04.989Z,97082.55
2017-11-20T12:07:31.125Z,97098.77
2017-11-20T12:09:57.217Z,97089.49
2017-11-20T12:12:23.497Z,97095.13
2017-11-20T12:14:49.590Z,97092.52
2017-11-20T12:17:15.706Z,97091.88
2017-11-20T12:19:41.877Z,97076.47
2017-11-20T12:22:07.976Z,97104.19
2017-11-20T12:24:34.078Z,97106.83
2017-11-20T12:27:00.218Z,97096.61
2017-11-20T12:29:26.290Z,97100.55
2017-11-20T12:31:52.356Z,97096.48
2017-11-20T12:34:18.495Z,97099.22
2017-11-20T12:36:44.586Z,97092.82
2017-11-20T12:39:10.685Z,97096.87
2017-11-20T12:41:36.799Z,97080.52
2017-11-20T12:44:02.973Z,97089.94
2017-11-20T12:46:29.051Z,97087.72
2017-11-20T12:48:55.123Z,97087.45
2017-11-20T12:51:21.205Z,97081.03
2017-11-20T12:53:47.279Z,97086.00
2017-11-20T12:56:13.406Z,97088.87
2017-11-20T12:58:39.534Z,97082.86
2017-11-20T13:01:05.629Z,97086.14
2017-11-20T13:03:31.756Z,97084.30
2017-11-20T13:05:57.794Z,97087.70
2017-11-20T13:08:23.918Z,97096.73
2017-11-20T13:10:49.982Z,97090.72
2017-11-20T13:13:16.057Z,97088.38
2017-11-20T13:15:42.154Z,97088.48
2017-11-20T13:18:08.293Z,97084.05
2017-11-20T13:20:34.413Z,97092.52
2017-11-20T13:23:00.521Z,97086.93
2017-11-20T13:25:26.630Z,97083.48
2017-11-20T13:27:52.677Z,97088.20
2017-11-20T13:30:18.730Z,97089.23
2017-11-20T13:32:44.781Z,97093.39
2017-11-20T13:35:10.877Z,97085.81
2017-11-20T13:37:37.074Z,97085.16
2017-11-20T13:40:03.158Z,97086.56
2017-11-20T13:42:29.305Z,97084.60
2017-11-20T13:44:55.384Z,97082.38
2017-11-20T13:47:21.476Z,97083.04
2017-11-20T13:49:47.592Z,97081.11
2017-11-20T13:52:13.755Z,97080.30
2017-11-20T13:54:39.845Z,97081.60
2017-11-20T13:57:05.947Z,97084.99
2017-11-20T13:59:32.046Z,97083.26
2017-11-20T14:01:58.146Z,97078.33
2017-11-20T14:04:24.247Z,97075.30
2017-11-20T14:06:50.389Z,97079.47
2017-11-20T14:09:16.457Z,97078.69
2017-11-20T14:11:42.521Z,97070.59
2017-11-20T14:14:08.559Z,97068.77
2017-11-20T14:16:34.655Z,97068.86
2017-11-20T14:19:00.817Z,97065.77
2017-11-20T14:21:26.854Z,97072.69
2017-11-20T14:23:52.978Z,97062.50
2017-11-20T14:26:19.066Z,97067.42
2017-11-20T14:28:45.173Z,97061.67
2017-11-20T14:31:11.342Z,97058.67
2017-11-20T14:33:37.409Z,97056.88
2017-11-20T14:36:03.481Z,97059.50
2017-11-20T14:38:29.588Z,97060.19
2017-11-20T14:40:55.686Z,97058.36
2017-11-20T14:43:21.745Z,97050.11
2017-11-20T14:45:47.875Z,97046.93
2017-11-20T14:48:13.947Z,97034.10
2017-11-20T14:50:40.057Z,97039.44
2017-11-20T14:53:06.257Z,97038.39
2017-11-20T14:55:32.350Z,97034.31
2017-11-20T14:57:58.406Z,97033.84
2017-11-20T15:00:24.533Z,97025.97
2017-11-20T15:02:50.649Z,97018.97
2017-11-20T15:05:16.689Z,97016.88
2017-11-20T15:07:42.812Z,97012.44
2017-11-20T15:10:08.924Z,97010.34
2017-11-20T15:12:35.063Z,97010.09
2017-11-20T15:15:01.182Z,97005.39
2017-11-20T15:17:27.329Z,97003.66
2017-11-20T15:19:53.428Z,96999.08
2017-11-20T15:22:19.664Z,97002.17
2017-11-20T15:24:45.791Z,96998.91
2017-11-20T15:27:11.949Z,97004.38
2017-11-20T15:29:38.127Z,97000.73
2017-11-20T15:32:04.171Z,97002.02
2017-11-20T15:34:30.262Z,97000.55
2017-11-20T15:36:56.399Z,96998.72
2017-11-20T15:39:22.460Z,97002.38
2017-11-20T15:41:48.567Z,96998.58
2017-11-20T15:44:14.705Z,96992.34
2017-11-20T15:46:40.822Z,96986.34
2017-11-20T15:49:06.910Z,96985.69
2017-11-20T15:51:33.076Z,96985.17
2017-11-20T15:53:59.194Z,96981.17
2017-11-20T15:56:25.277Z,96981.96
2017-11-20T15:58:51.434Z,96968.00
2017-11-20T16:01:17.651Z,96964.13
2017-11-20T16:03:43.861Z,96969.05
2017-11-20T16:06:10.018Z,96962.27
2017-11-20T16:08:36.153Z,96960.00
2017-11-20T16:11:02.239Z,96960.79
2017-11-20T16:13:28.465Z,96957.84
2017-11-20T16:15:54.555Z,96954.44
2017-11-20T16:18:20.695Z,96959.80
2017-11-20T16:20:46.849Z,96956.53
2017-11-20T16:23:13.021Z,96943.09
2017-11-20T16:25:39.110Z,96940.06
2017-11-20T16:28:05.277Z,96943.84
2017-11-20T16:30:31.405Z,96948.19
2017-11-20T16:32:57.546Z,96944.67
2017-11-20T16:35:23.694Z,96940.23
2017-11-20T16:37:49.835Z,96946.36
2017-11-20T16:40:15.969Z,96948.70
2017-11-20T16:42:42.099Z,96941.80
2017-11-20T16:45:08.193Z,96930.19
2017-11-20T16:47:34.372Z,96937.23
2017-11-20T16:50:00.481Z,96928.23
2017-11-20T16:52:26.618Z,96929.02
2017-11-20T16:54:52.790Z,96930.09
2017-11-20T17:00:31.250Z,96920.67
2017-11-20T17:03:05.857Z,96917.55
2017-11-20T17:05:32.031Z,96916.38
2017-11-20T17:07:58.152Z,96913.53
2017-11-20T17:10:24.282Z,96908.31
2017-11-20T17:12:50.418Z,96907.80
2017-11-20T17:15:16.542Z,96905.05
2017-11-20T17:17:42.669Z,96902.84
2017-11-20T17:20:09.005Z,96895.92
2017-11-20T17:22:35.154Z,96898.66
2017-11-20T17:25:01.325Z,96890.31
2017-11-20T17:27:27.463Z,96889.43
2017-11-20T17:29:53.554Z,96882.78
2017-11-20T17:32:19.782Z,96882.65
2017-11-20T17:34:45.912Z,96878.06
2017-11-20T17:37:12.045Z,96874.25
2017-11-20T17:39:38.166Z,96872.00
2017-11-20T17:42:04.359Z,96873.05
2017-11-20T17:44:30.513Z,96873.31
2017-11-20T17:46:56.645Z,96870.47
2017-11-20T17:49:22.813Z,96871.77
2017-11-20T17:51:48.982Z,96874.77
2017-11-20T17:54:15.091Z,96869.30
2017-11-20T17:56:41.274Z,96864.34
2017-11-20T17:59:07.534Z,96862.41
2017-11-20T18:01:33.674Z,96860.45
2017-11-20T18:03:59.852Z,96857.17
2017-11-20T18:06:26.018Z,96850.91
2017-11-20T18:08:52.202Z,96849.58
2017-11-20T18:11:18.334Z,96854.41
2017-11-20T18:13:44.558Z,96853.23
2017-11-20T18:16:10.678Z,96845.51
2017-11-20T18:18:36.778Z,96845.77
2017-11-20T18:21:02.913Z,96841.89
2017-11-20T18:23:29.032Z,96835.38
2017-11-20T18:25:55.184Z,96837.33
2017-11-20T18:28:21.239Z,96834.85
2017-11-20T18:30:47.401Z,96826.48
2017-11-20T18:33:13.692Z,96826.22
2017-11-20T18:35:40.045Z,96830.39
2017-11-20T18:38:06.150Z,96827.12
2017-11-20T18:40:32.298Z,96820.22
2017-11-20T18:42:58.444Z,96816.97
2017-11-20T18:45:24.688Z,96817.09
2017-11-20T18:47:50.802Z,96821.13
2017-11-20T18:50:16.968Z,96815.17
2017-11-20T18:52:43.147Z,96818.95
2017-11-20T18:55:09.567Z,96805.78
2017-11-20T18:57:35.688Z,96804.34
2017-11-20T19:00:13.824Z,96806.04
2017-11-20T19:02:48.116Z,96810.45
2017-11-20T19:05:26.517Z,96808.13
2017-11-20T19:08:04.892Z,96805.00
2017-11-20T19:10:31.168Z,96803.56
2017-11-20T19:12:57.441Z,96805.00
2017-11-20T19:15:23.680Z,96803.05
2017-11-20T19:17:50.048Z,96799.23
2017-11-20T19:20:16.284Z,96798.84
2017-11-20T19:22:42.496Z,96804.34
2017-11-20T19:25:08.774Z,96800.15
2017-11-20T19:27:35.028Z,96800.18
2017-11-20T19:30:01.377Z,96798.22
2017-11-20T19:32:27.795Z,96806.04
2017-11-20T19:34:54.814Z,96806.70
2017-11-20T19:37:21.112Z,96809.53
2017-11-20T19:39:47.466Z,96805.36
2017-11-20T19:42:13.785Z,96800.67
2017-11-20T19:44:40.082Z,96807.32
2017-11-20T19:47:06.490Z,96803.02
2017-11-20T19:49:32.854Z,96810.97
2017-11-20T19:51:59.232Z,96809.25
2017-11-20T19:54:25.565Z,96807.68
2017-11-20T19:56:52.090Z,96809.12
2017-11-20T19:59:18.565Z,96807.81
2017-11-20T20:01:44.928Z,96793.51
2017-11-20T20:04:11.287Z,96794.16
2017-11-20T20:06:37.616Z,96790.22
2017-11-20T20:09:03.976Z,96787.48
2017-11-20T20:11:30.329Z,96787.38
2017-11-20T20:13:57.620Z,96786.05
2017-11-20T20:16:36.178Z,96769.77
2017-11-20T20:19:02.529Z,96771.69
2017-11-20T20:21:28.877Z,96765.95
2017-11-20T20:23:55.263Z,96761.42
2017-11-20T20:26:21.633Z,96763.12
2017-11-20T20:28:48.030Z,96770.80
2017-11-20T20:31:14.382Z,96763.14
2017-11-20T20:33:40.750Z,96764.16
2017-11-20T20:36:07.177Z,96772.11
2017-11-20T20:38:33.530Z,96767.67
2017-11-20T20:40:59.868Z,96762.75
2017-11-20T20:43:26.220Z,96767.44
2017-11-20T20:45:52.530Z,96755.16
2017-11-20T20:48:18.852Z,96753.61
2017-11-20T20:50:45.145Z,96749.56
2017-11-20T20:53:11.461Z,96742.27
2017-11-20T20:55:37.830Z,96735.77
2017-11-20T20:58:04.140Z,96730.55
2017-11-20T21:00:30.453Z,96724.31
2017-11-20T21:02:56.754Z,96722.06
2017-11-20T21:05:22.961Z,96722.08
2017-11-20T21:07:49.278Z,96721.70
2017-11-20T21:10:21.568Z,96720.63
2017-11-20T21:12:47.793Z,96710.21
2017-11-20T21:15:14.047Z,96707.76
2017-11-20T21:17:40.322Z,96702.39
2017-11-20T21:20:06.588Z,96702.53
2017-11-20T21:22:32.889Z,96700.18
2017-11-20T21:24:59.054Z,96697.19
2017-11-20T21:27:25.238Z,96700.83
2017-11-20T21:29:51.406Z,96694.84
2017-11-20T21:32:17.487Z,96702.14
2017-11-20T21:34:43.631Z,96696.41
2017-11-20T21:37:09.792Z,96692.23
2017-11-20T21:39:35.949Z,96698.38
2017-11-20T21:42:02.168Z,96700.57
2017-11-20T21:44:28.425Z,96693.42
2017-11-20T21:46:54.593Z,96695.23
2017-11-20T21:49:20.754Z,96691.06
2017-11-20T21:51:46.954Z,96684.81
2017-11-20T21:54:13.074Z,96684.16
2017-11-20T21:56:39.206Z,96681.42
2017-11-20T21:59:05.395Z,96679.47
2017-11-20T22:01:31.550Z,96684.67
2017-11-20T22:03:57.675Z,96687.41
2017-11-20T22:06:23.833Z,96678.05
2017-11-20T22:08:49.968Z,96672.04
2017-11-20T22:11:16.130Z,96664.20
2017-11-20T22:13:42.229Z,96659.14
2017-11-20T22:16:08.384Z,96666.05
2017-11-20T22:18:34.490Z,96662.00
2017-11-20T22:21:00.618Z,96665.27
2017-11-20T22:23:26.783Z,96662.52
2017-11-20T22:25:52.901Z,96660.44
2017-11-20T22:28:19.028Z,96665.12
2017-11-20T22:30:45.121Z,96655.75
2017-11-20T22:33:11.237Z,96660.19
2017-11-20T22:35:37.338Z,96663.05
2017-11-20T22:38:03.418Z,96665.53
2017-11-20T22:40:29.541Z,96661.36
2017-11-20T22:42:55.674Z,96651.83
2017-11-20T22:45:21.800Z,96646.75
2017-11-20T22:47:48.005Z,96642.47
2017-11-20T22:50:14.093Z,96649.50
2017-11-20T22:52:40.170Z,96644.54
2017-11-20T22:55:06.325Z,96643.11
2017-11-20T22:57:32.477Z,96643.11
2017-11-20T22:59:58.602Z,96642.34
2017-11-20T23:02:24.772Z,96641.93
2017-11-20T23:04:50.941Z,96632.69
2017-11-20T23:07:17.084Z,96635.94
2017-11-20T23:09:43.176Z,96628.65
2017-11-20T23:12:09.261Z,96628.38
2017-11-20T23:14:35.385Z,96625.66
2017-11-20T23:17:01.476Z,96626.70
2017-11-20T23:19:27.666Z,96623.30
2017-11-20T23:21:53.846Z,96624.09
2017-11-20T23:24:19.949Z,96615.49
2017-11-20T23:26:46.026Z,96621.61
2017-11-20T23:29:12.158Z,96615.73
2017-11-20T23:31:38.350Z,96612.63
2017-11-20T23:34:04.509Z,96615.48
2017-11-20T23:36:30.585Z,96612.23
2017-11-20T23:38:56.702Z,96610.66
2017-11-20T23:41:22.809Z,96605.45
2017-11-20T23:43:48.946Z,96607.16
2017-11-20T23:46:15.045Z,96611.08
2017-11-20T23:48:41.162Z,96610.94
2017-11-20T23:51:07.250Z,96610.66
2017-11-20T23:53:33.399Z,96608.70
2017-11-20T23:55:59.550Z,96602.08
2017-11-20T23:58:25.714Z,96606.75
